createdAt,value
2023-05-21T00:00:30.552Z,3.90
2023-05-21T00:02:59.268Z,3.13
2023-05-21T00:05:26.989Z,3.13
2023-05-21T00:07:55.040Z,3.28
2023-05-21T00:10:22.549Z,3.53
2023-05-21T00:12:49.782Z,3.13
2023-05-21T00:15:17.051Z,3.22
2023-05-21T00:17:46.124Z,3.28
2023-05-21T00:20:13.762Z,3.58
2023-05-21T00:22:42.605Z,3.47
2023-05-21T00:25:11.484Z,3.20
2023-05-21T00:27:38.746Z,2.85
2023-05-21T00:30:07.169Z,3.35
2023-05-21T00:32:34.438Z,3.20
2023-05-21T00:35:01.801Z,3.47
2023-05-21T00:37:34.489Z,3.88
2023-05-21T00:40:03.077Z,3.10
2023-05-21T00:42:30.738Z,3.20
2023-05-21T00:44:58.262Z,3.35
2023-05-21T00:47:29.840Z,3.80
2023-05-21T00:49:57.657Z,3.95
2023-05-21T00:52:27.217Z,3.58
2023-05-21T00:54:55.338Z,3.63
2023-05-21T00:57:25.439Z,3.33
2023-05-21T00:59:54.027Z,3.90
2023-05-21T01:02:24.431Z,3.22
2023-05-21T01:04:56.274Z,3.50
2023-05-21T01:07:23.579Z,3.83
2023-05-21T01:09:51.169Z,3.50
2023-05-21T01:12:19.799Z,3.10
2023-05-21T01:14:48.273Z,3.15
2023-05-21T01:17:17.349Z,3.80
2023-05-21T01:19:44.945Z,3.35
2023-05-21T01:22:14.333Z,3.70
2023-05-21T01:24:41.835Z,3.13
2023-05-21T01:27:10.511Z,3.60
2023-05-21T01:29:37.727Z,3.60
2023-05-21T01:32:10.441Z,3.55
2023-05-21T01:34:45.963Z,3.42
2023-05-21T01:37:20.759Z,3.47
2023-05-21T01:39:55.713Z,3.88
2023-05-21T01:42:25.336Z,3.60
2023-05-21T01:44:57.190Z,3.88
2023-05-21T01:47:27.125Z,3.72
2023-05-21T01:49:54.675Z,3.88
2023-05-21T01:52:22.487Z,3.97
2023-05-21T01:54:51.212Z,3.38
2023-05-21T01:57:18.710Z,3.80
2023-05-21T01:59:48.017Z,3.65
2023-05-21T02:02:15.474Z,3.70
2023-05-21T02:04:44.084Z,3.78
2023-05-21T02:07:11.392Z,3.88
2023-05-21T02:09:38.802Z,3.92
2023-05-21T02:12:06.714Z,4.00
2023-05-21T02:14:33.879Z,3.40
2023-05-21T02:17:01.439Z,3.78
2023-05-21T02:19:29.198Z,3.33
2023-05-21T02:21:56.702Z,3.45
2023-05-21T02:24:24.621Z,3.83
2023-05-21T02:26:52.649Z,4.00
2023-05-21T02:29:20.006Z,3.58
2023-05-21T02:31:47.479Z,4.15
2023-05-21T02:34:14.719Z,4.07
2023-05-21T02:36:43.060Z,3.53
2023-05-21T02:39:10.308Z,3.83
2023-05-21T02:41:38.176Z,3.72
2023-05-21T02:44:05.401Z,3.92
2023-05-21T02:46:32.787Z,3.70
2023-05-21T02:49:00.789Z,3.67
2023-05-21T02:51:28.166Z,3.78
2023-05-21T02:53:55.425Z,4.07
2023-05-21T02:56:23.517Z,3.55
2023-05-21T02:58:52.308Z,3.63
2023-05-21T03:01:19.789Z,4.07
2023-05-21T03:03:47.007Z,3.83
2023-05-21T03:06:14.363Z,3.80
2023-05-21T03:08:41.614Z,3.53
2023-05-21T03:11:08.842Z,4.32
2023-05-21T03:13:36.318Z,3.83
2023-05-21T03:16:03.769Z,3.92
2023-05-21T03:18:32.154Z,3.58
2023-05-21T03:20:59.455Z,4.22
2023-05-21T03:23:27.080Z,3.67
2023-05-21T03:25:54.837Z,4.25
2023-05-21T03:28:23.188Z,3.88
2023-05-21T03:30:51.179Z,3.90
2023-05-21T03:33:19.913Z,3.58
2023-05-21T03:35:47.302Z,4.18
2023-05-21T03:38:15.058Z,3.67
2023-05-21T03:40:42.478Z,4.05
2023-05-21T03:43:09.831Z,4.10
2023-05-21T03:45:37.445Z,3.95
2023-05-21T03:48:25.019Z,4.10
2023-05-21T03:50:52.620Z,4.00
2023-05-21T03:53:19.923Z,4.10
2023-05-21T03:55:55.130Z,4.07
2023-05-21T03:58:25.096Z,4.05
2023-05-21T04:00:52.291Z,4.32
2023-05-21T04:03:19.700Z,4.90
2023-05-21T04:05:47.336Z,4.65
2023-05-21T04:08:14.972Z,4.32
2023-05-21T04:10:42.227Z,4.28
2023-05-21T04:13:09.734Z,4.10
2023-05-21T04:15:38.861Z,4.35
2023-05-21T04:18:07.485Z,4.47
2023-05-21T04:20:34.665Z,4.18
2023-05-21T04:23:03.060Z,4.10
2023-05-21T04:25:30.350Z,4.30
2023-05-21T04:27:57.731Z,4.60
2023-05-21T04:30:24.957Z,4.20
2023-05-21T04:32:52.909Z,4.47
2023-05-21T04:35:20.160Z,4.35
2023-05-21T04:37:47.404Z,4.65
2023-05-21T04:40:18.502Z,3.97
2023-05-21T04:42:46.789Z,4.80
2023-05-21T04:45:14.492Z,4.32
2023-05-21T04:47:44.481Z,5.28
2023-05-21T04:50:11.993Z,4.60
2023-05-21T04:52:40.372Z,4.50
2023-05-21T04:55:09.000Z,4.82
2023-05-21T04:57:36.299Z,4.85
2023-05-21T05:00:06.213Z,4.63
2023-05-21T05:02:39.332Z,4.47
2023-05-21T05:05:06.941Z,4.45
2023-05-21T05:07:34.133Z,4.72
2023-05-21T05:10:01.785Z,5.60
2023-05-21T05:12:29.009Z,5.22
2023-05-21T05:14:56.260Z,4.95
2023-05-21T05:17:24.691Z,4.75
2023-05-21T05:19:53.142Z,5.43
2023-05-21T05:22:20.306Z,4.95
2023-05-21T05:24:47.950Z,5.13
2023-05-21T05:27:15.044Z,5.05
2023-05-21T05:29:42.261Z,5.38
2023-05-21T05:32:09.490Z,5.07
2023-05-21T05:34:38.112Z,5.38
2023-05-21T05:37:06.171Z,4.72
2023-05-21T05:39:33.808Z,5.40
2023-05-21T05:42:01.641Z,5.00
2023-05-21T05:44:28.851Z,4.80
2023-05-21T05:46:56.286Z,4.55
2023-05-21T05:49:23.478Z,5.05
2023-05-21T05:51:50.840Z,5.15
2023-05-21T05:54:18.190Z,5.10
2023-05-21T05:56:45.389Z,5.50
2023-05-21T05:59:12.700Z,5.22
2023-05-21T06:01:47.234Z,5.05
2023-05-21T06:04:14.526Z,5.05
2023-05-21T06:06:42.141Z,5.00
2023-05-21T06:09:09.987Z,5.55
2023-05-21T06:11:37.073Z,5.18
2023-05-21T06:14:04.469Z,5.75
2023-05-21T06:16:31.826Z,5.18
2023-05-21T06:18:59.603Z,5.13
2023-05-21T06:21:27.568Z,5.28
2023-05-21T06:23:54.940Z,5.88
2023-05-21T06:26:22.116Z,5.28
2023-05-21T06:28:51.167Z,5.82
2023-05-21T06:31:19.049Z,5.70
2023-05-21T06:33:46.434Z,5.35
2023-05-21T06:36:13.578Z,5.25
2023-05-21T06:38:41.011Z,6.07
2023-05-21T06:41:08.319Z,5.40
2023-05-21T06:43:47.339Z,5.60
2023-05-21T06:46:16.487Z,6.47
2023-05-21T06:48:46.630Z,5.15
2023-05-21T06:51:14.118Z,5.65
2023-05-21T06:53:41.412Z,5.15
2023-05-21T06:56:08.728Z,5.32
2023-05-21T06:58:38.718Z,5.32
2023-05-21T07:01:06.134Z,5.22
2023-05-21T07:03:33.422Z,5.10
2023-05-21T07:06:01.026Z,5.03
2023-05-21T07:08:28.205Z,4.30
2023-05-21T07:10:56.465Z,6.63
2023-05-21T07:13:23.956Z,5.57
2023-05-21T07:15:51.342Z,5.57
2023-05-21T07:18:19.326Z,4.72
2023-05-21T07:20:46.599Z,4.78
2023-05-21T07:23:16.158Z,5.55
2023-05-21T07:25:44.423Z,5.75
2023-05-21T07:28:13.378Z,5.40
2023-05-21T07:30:40.676Z,5.32
2023-05-21T07:33:12.832Z,5.60
2023-05-21T07:35:40.971Z,4.40
2023-05-21T07:38:08.357Z,5.05
2023-05-21T07:40:35.602Z,5.95
2023-05-21T07:43:03.920Z,4.93
2023-05-21T07:45:32.804Z,5.70
2023-05-21T07:48:00.227Z,4.78
2023-05-21T07:50:28.685Z,4.82
2023-05-21T07:52:55.839Z,5.25
2023-05-21T07:55:23.225Z,4.95
2023-05-21T07:57:52.416Z,4.70
2023-05-21T08:00:25.223Z,5.32
2023-05-21T08:02:56.224Z,5.43
2023-05-21T08:05:25.738Z,5.50
2023-05-21T08:07:53.179Z,5.55
2023-05-21T08:10:21.463Z,5.40
2023-05-21T08:12:51.131Z,4.60
2023-05-21T08:15:19.200Z,4.93
2023-05-21T08:17:46.594Z,5.55
2023-05-21T08:20:15.551Z,4.93
2023-05-21T08:22:44.964Z,5.13
2023-05-21T08:25:12.216Z,4.80
2023-05-21T08:27:39.716Z,5.30
2023-05-21T08:30:08.034Z,4.82
2023-05-21T08:32:35.663Z,5.47
2023-05-21T08:35:03.371Z,5.70
2023-05-21T08:37:32.433Z,5.95
2023-05-21T08:40:06.542Z,5.13
2023-05-21T08:42:42.699Z,4.93
2023-05-21T08:45:19.940Z,5.35
2023-05-21T08:47:48.294Z,5.07
2023-05-21T08:50:19.574Z,5.45
2023-05-21T08:52:48.592Z,5.30
2023-05-21T08:55:16.721Z,5.40
2023-05-21T08:57:44.682Z,5.45
2023-05-21T09:00:15.033Z,5.70
2023-05-21T09:02:44.222Z,5.07
2023-05-21T09:05:13.349Z,4.82
2023-05-21T09:07:46.108Z,5.40
2023-05-21T09:10:35.913Z,5.03
2023-05-21T09:13:04.546Z,5.45
2023-05-21T09:15:32.647Z,4.65
2023-05-21T09:18:00.464Z,5.18
2023-05-21T09:20:38.524Z,4.68
2023-05-21T09:23:12.576Z,4.50
2023-05-21T09:25:40.206Z,4.93
2023-05-21T09:28:13.554Z,4.38
2023-05-21T09:30:44.216Z,4.35
2023-05-21T09:33:12.096Z,4.30
2023-05-21T09:35:46.530Z,5.05
2023-05-21T09:38:15.820Z,4.57
2023-05-21T09:40:46.686Z,4.70
2023-05-21T09:43:16.376Z,5.20
2023-05-21T09:45:46.611Z,5.10
2023-05-21T09:48:13.830Z,5.13
2023-05-21T09:50:41.259Z,4.95
2023-05-21T09:53:14.399Z,5.03
2023-05-21T09:55:42.213Z,4.75
2023-05-21T09:58:11.369Z,4.25
2023-05-21T10:00:39.192Z,5.57
2023-05-21T10:03:13.149Z,4.95
2023-05-21T10:05:42.162Z,4.82
2023-05-21T10:08:11.180Z,5.32
2023-05-21T10:10:41.107Z,4.60
2023-05-21T10:13:12.586Z,4.30
2023-05-21T10:15:44.529Z,4.38
2023-05-21T10:18:14.182Z,4.05
2023-05-21T10:20:41.951Z,4.70
2023-05-21T10:23:10.129Z,5.05
2023-05-21T10:25:37.608Z,4.50
2023-05-21T10:28:07.135Z,4.95
2023-05-21T10:30:36.604Z,4.53
2023-05-21T10:33:05.912Z,4.90
2023-05-21T10:35:34.535Z,5.53
2023-05-21T10:38:05.179Z,4.22
2023-05-21T10:40:32.610Z,4.90
2023-05-21T10:43:10.459Z,4.97
2023-05-21T10:45:48.005Z,5.63
2023-05-21T10:48:18.411Z,7.53
2023-05-21T10:50:57.074Z,6.53
2023-05-21T10:53:33.033Z,5.47
2023-05-21T10:56:03.273Z,5.72
2023-05-21T10:58:37.215Z,5.22
2023-05-21T11:01:05.846Z,5.63
2023-05-21T11:03:37.249Z,4.63
2023-05-21T11:06:06.557Z,5.18
2023-05-21T11:08:36.284Z,4.88
2023-05-21T11:11:05.065Z,5.40
2023-05-21T11:13:38.861Z,4.88
2023-05-21T11:16:07.987Z,5.22
2023-05-21T11:18:57.480Z,5.05
2023-05-21T11:21:28.253Z,4.80
2023-05-21T11:23:59.589Z,5.05
2023-05-21T11:26:30.363Z,5.13
2023-05-21T11:29:00.773Z,5.05
2023-05-21T11:31:30.471Z,5.18
2023-05-21T11:34:00.741Z,4.90
2023-05-21T11:36:28.116Z,5.07
2023-05-21T11:39:21.858Z,4.72
2023-05-21T11:41:52.480Z,4.85
2023-05-21T11:44:38.939Z,5.03
2023-05-21T11:47:07.314Z,4.38
2023-05-21T11:49:35.466Z,5.38
2023-05-21T11:52:04.174Z,4.93
2023-05-21T11:54:34.216Z,4.40
2023-05-21T11:57:01.966Z,4.88
2023-05-21T11:59:29.239Z,5.68
2023-05-21T12:01:56.695Z,4.88
2023-05-21T12:04:23.870Z,4.28
2023-05-21T12:06:51.958Z,4.63
2023-05-21T12:09:19.194Z,3.90
2023-05-21T12:11:46.391Z,4.20
2023-05-21T12:14:14.636Z,4.13
2023-05-21T12:16:42.209Z,4.30
2023-05-21T12:19:10.157Z,4.20
2023-05-21T12:21:38.076Z,4.63
2023-05-21T12:24:05.526Z,5.10
2023-05-21T12:26:33.209Z,5.35
2023-05-21T12:29:00.494Z,5.20
2023-05-21T12:31:31.022Z,5.10
2023-05-21T12:33:58.220Z,4.32
2023-05-21T12:36:28.258Z,4.43
2023-05-21T12:38:56.659Z,4.78
2023-05-21T12:41:23.916Z,5.07
2023-05-21T12:43:51.574Z,5.00
2023-05-21T12:46:19.111Z,4.35
2023-05-21T12:48:48.903Z,5.20
2023-05-21T12:51:15.989Z,4.50
2023-05-21T12:53:43.863Z,4.85
2023-05-21T12:56:12.855Z,5.00
2023-05-21T12:58:40.738Z,4.50
2023-05-21T13:01:09.214Z,4.70
2023-05-21T13:03:38.353Z,5.13
2023-05-21T13:06:08.687Z,5.10
2023-05-21T13:08:36.121Z,4.38
2023-05-21T13:11:03.994Z,4.82
2023-05-21T13:13:31.483Z,4.40
2023-05-21T13:16:00.722Z,4.45
2023-05-21T13:18:28.017Z,5.05
2023-05-21T13:20:55.213Z,5.00
2023-05-21T13:23:22.560Z,5.70
2023-05-21T13:25:49.720Z,5.63
2023-05-21T13:28:17.089Z,5.05
2023-05-21T13:30:44.337Z,5.03
2023-05-21T13:33:12.111Z,4.47
2023-05-21T13:35:39.296Z,5.35
2023-05-21T13:38:06.537Z,5.18
2023-05-21T13:40:33.934Z,5.40
2023-05-21T13:43:01.999Z,4.43
2023-05-21T13:45:29.596Z,5.13
2023-05-21T13:47:57.131Z,4.30
2023-05-21T13:50:25.086Z,5.20
2023-05-21T13:52:52.368Z,5.10
2023-05-21T13:55:19.674Z,5.20
2023-05-21T13:57:47.056Z,5.18
2023-05-21T14:00:16.092Z,4.78
2023-05-21T14:02:44.129Z,5.18
2023-05-21T14:05:11.782Z,5.50
2023-05-21T14:07:40.186Z,5.05
2023-05-21T14:10:08.042Z,4.90
2023-05-21T14:12:35.317Z,4.82
2023-05-21T14:15:02.489Z,4.85
2023-05-21T14:17:31.178Z,4.85
2023-05-21T14:19:58.448Z,5.20
2023-05-21T14:22:25.701Z,5.70
2023-05-21T14:24:52.940Z,4.88
2023-05-21T14:27:20.153Z,4.85
2023-05-21T14:29:47.327Z,5.07
2023-05-21T14:32:14.537Z,4.88
2023-05-21T14:34:41.968Z,4.60
2023-05-21T14:37:09.275Z,4.97
2023-05-21T14:39:36.428Z,5.07
2023-05-21T14:42:04.885Z,5.53
2023-05-21T14:44:32.645Z,5.20
2023-05-21T14:47:00.002Z,5.45
2023-05-21T14:49:27.146Z,4.90
2023-05-21T14:51:54.419Z,5.00
2023-05-21T14:54:21.618Z,5.75
2023-05-21T14:56:48.879Z,4.90
2023-05-21T14:59:16.126Z,5.78
2023-05-21T15:01:43.712Z,5.60
2023-05-21T15:04:11.189Z,5.43
2023-05-21T15:06:38.573Z,4.80
2023-05-21T15:09:05.704Z,4.80
2023-05-21T15:11:34.136Z,5.05
2023-05-21T15:14:01.423Z,5.00
2023-05-21T15:16:28.599Z,5.65
2023-05-21T15:18:56.029Z,4.78
2023-05-21T15:21:24.393Z,5.40
2023-05-21T15:23:53.742Z,5.20
2023-05-21T15:26:21.721Z,4.90
2023-05-21T15:28:48.988Z,5.00
2023-05-21T15:31:16.172Z,5.20
2023-05-21T15:33:43.321Z,5.57
2023-05-21T15:36:10.629Z,5.25
2023-05-21T15:38:37.729Z,4.70
2023-05-21T15:41:06.658Z,5.18
2023-05-21T15:43:33.810Z,4.95
2023-05-21T15:46:01.106Z,5.35
2023-05-21T15:48:28.205Z,5.53
2023-05-21T15:50:55.542Z,5.72
2023-05-21T15:53:22.630Z,5.40
2023-05-21T15:55:49.823Z,6.60
2023-05-21T15:58:17.072Z,6.80
2023-05-21T16:00:44.373Z,7.75
2023-05-21T16:03:12.670Z,7.65
2023-05-21T16:05:40.072Z,7.32
2023-05-21T16:08:07.277Z,7.95
2023-05-21T16:10:34.572Z,7.47
2023-05-21T16:13:01.712Z,8.05
2023-05-21T16:15:32.311Z,7.03
2023-05-21T16:17:59.754Z,8.40
2023-05-21T16:20:27.001Z,9.23
2023-05-21T16:22:54.192Z,9.57
2023-05-21T16:25:21.332Z,7.97
2023-05-21T16:27:49.115Z,10.32
2023-05-21T16:30:16.384Z,10.70
2023-05-21T16:32:43.699Z,10.00
2023-05-21T16:35:11.086Z,8.98
2023-05-21T16:37:38.308Z,9.55
2023-05-21T16:40:06.107Z,8.40
2023-05-21T16:42:33.396Z,8.40
2023-05-21T16:45:00.781Z,8.90
2023-05-21T16:47:28.036Z,7.60
2023-05-21T16:49:55.909Z,6.85
2023-05-21T16:52:24.087Z,7.07
2023-05-21T16:54:51.438Z,6.88
2023-05-21T16:57:18.679Z,6.03
2023-05-21T16:59:45.881Z,5.95
2023-05-21T17:02:13.973Z,5.90
2023-05-21T17:04:41.362Z,6.60
2023-05-21T17:07:08.636Z,5.45
2023-05-21T17:09:36.019Z,5.32
2023-05-21T17:12:03.718Z,6.13
2023-05-21T17:14:34.156Z,5.13
2023-05-21T17:17:02.359Z,4.95
2023-05-21T17:19:29.737Z,5.20
2023-05-21T17:21:57.166Z,4.40
2023-05-21T17:24:24.388Z,5.57
2023-05-21T17:26:53.089Z,5.32
2023-05-21T17:29:20.339Z,5.05
2023-05-21T17:31:47.650Z,5.28
2023-05-21T17:34:14.857Z,4.88
2023-05-21T17:36:42.148Z,4.88
2023-05-21T17:39:09.291Z,4.95
2023-05-21T17:41:36.613Z,4.80
2023-05-21T17:44:03.899Z,4.55
2023-05-21T17:46:31.200Z,4.75
2023-05-21T17:48:58.466Z,4.97
2023-05-21T17:51:25.712Z,4.95
2023-05-21T17:53:52.862Z,4.63
2023-05-21T17:56:20.199Z,4.43
2023-05-21T17:58:48.081Z,4.57
2023-05-21T18:01:15.622Z,4.53
2023-05-21T18:03:42.874Z,4.20
2023-05-21T18:06:10.141Z,5.32
2023-05-21T18:08:37.351Z,5.85
2023-05-21T18:11:05.001Z,4.68
2023-05-21T18:13:32.551Z,5.97
2023-05-21T18:15:59.896Z,5.85
2023-05-21T18:18:27.222Z,6.90
2023-05-21T18:20:54.469Z,6.97
2023-05-21T18:23:21.579Z,5.40
2023-05-21T18:25:49.064Z,4.50
2023-05-21T18:28:16.149Z,6.07
2023-05-21T18:30:43.454Z,5.68
2023-05-21T18:33:12.833Z,5.95
2023-05-21T18:35:40.916Z,4.55
2023-05-21T18:38:10.130Z,7.00
2023-05-21T18:40:38.185Z,5.63
2023-05-21T18:43:06.674Z,4.60
2023-05-21T18:45:34.516Z,4.47
2023-05-21T18:48:03.177Z,4.93
2023-05-21T18:50:31.960Z,6.90
2023-05-21T18:52:59.151Z,6.15
2023-05-21T18:55:26.752Z,5.88
2023-05-21T18:57:55.639Z,5.20
2023-05-21T19:00:23.253Z,5.68
2023-05-21T19:02:50.706Z,5.07
2023-05-21T19:05:18.186Z,5.18
2023-05-21T19:07:45.520Z,6.00
2023-05-21T19:10:13.021Z,6.50
2023-05-21T19:12:42.113Z,7.38
2023-05-21T19:15:10.282Z,5.90
2023-05-21T19:17:39.092Z,5.18
2023-05-21T19:20:09.243Z,5.10
2023-05-21T19:22:37.352Z,4.82
2023-05-21T19:25:04.975Z,4.80
2023-05-21T19:27:32.412Z,5.18
2023-05-21T19:29:59.693Z,5.70
2023-05-21T19:32:26.958Z,4.97
2023-05-21T19:34:54.326Z,5.28
2023-05-21T19:37:21.835Z,4.90
2023-05-21T19:39:50.471Z,6.13
2023-05-21T19:42:20.048Z,5.70
2023-05-21T19:44:47.275Z,6.53
2023-05-21T19:47:14.408Z,6.57
2023-05-21T19:49:41.689Z,5.78
2023-05-21T19:52:10.335Z,6.70
2023-05-21T19:54:37.675Z,6.70
2023-05-21T19:57:05.088Z,6.78
2023-05-21T19:59:32.531Z,6.65
2023-05-21T20:01:59.788Z,7.13
2023-05-21T20:04:27.485Z,6.38
2023-05-21T20:06:54.635Z,5.30
2023-05-21T20:09:21.893Z,4.97
2023-05-21T20:11:49.085Z,4.80
2023-05-21T20:14:16.440Z,4.43
2023-05-21T20:16:46.991Z,4.65
2023-05-21T20:19:15.526Z,4.97
2023-05-21T20:21:42.899Z,4.72
2023-05-21T20:24:11.397Z,4.30
2023-05-21T20:26:40.224Z,5.22
2023-05-21T20:29:08.256Z,5.30
2023-05-21T20:31:36.013Z,4.40
2023-05-21T20:34:07.704Z,4.75
2023-05-21T20:36:36.804Z,5.18
2023-05-21T20:39:05.056Z,5.28
2023-05-21T20:41:36.567Z,5.00
2023-05-21T20:44:05.198Z,4.10
2023-05-21T20:46:33.262Z,5.68
2023-05-21T20:49:00.946Z,5.38
2023-05-21T20:51:28.176Z,5.32
2023-05-21T20:53:55.572Z,5.50
2023-05-21T20:56:39.967Z,4.47
2023-05-21T20:59:10.432Z,4.90
2023-05-21T21:01:38.194Z,5.82
2023-05-21T21:04:05.786Z,5.57
2023-05-21T21:06:33.888Z,5.93
2023-05-21T21:09:01.351Z,4.80
2023-05-21T21:11:28.941Z,4.82
2023-05-21T21:13:56.272Z,5.28
2023-05-21T21:16:23.633Z,5.70
2023-05-21T21:18:50.890Z,5.30
2023-05-21T21:21:18.127Z,5.00
2023-05-21T21:23:45.875Z,5.13
2023-05-21T21:26:13.074Z,4.10
2023-05-21T21:28:40.461Z,4.97
2023-05-21T21:31:07.972Z,4.53
2023-05-21T21:33:35.276Z,4.35
2023-05-21T21:36:02.384Z,5.45
2023-05-21T21:38:29.699Z,4.45
2023-05-21T21:40:56.977Z,4.65
2023-05-21T21:43:24.228Z,4.35
2023-05-21T21:45:51.530Z,3.92
2023-05-21T21:48:18.750Z,4.28
2023-05-21T21:50:46.011Z,5.40
2023-05-21T21:53:14.166Z,4.80
2023-05-21T21:55:41.311Z,4.97
2023-05-21T21:58:08.581Z,4.20
2023-05-21T22:00:35.880Z,4.10
2023-05-21T22:03:03.229Z,4.68
2023-05-21T22:05:31.441Z,4.03
2023-05-21T22:07:58.790Z,4.07
2023-05-21T22:10:26.021Z,4.50
2023-05-21T22:12:53.323Z,4.65
2023-05-21T22:15:23.921Z,3.85
2023-05-21T22:17:51.993Z,4.03
2023-05-21T22:20:19.859Z,4.32
2023-05-21T22:22:47.235Z,5.18
2023-05-21T22:25:14.607Z,4.60
2023-05-21T22:27:43.147Z,4.93
2023-05-21T22:30:10.830Z,4.78
2023-05-21T22:32:38.284Z,4.10
2023-05-21T22:35:06.298Z,5.90
2023-05-21T22:37:33.612Z,4.85
2023-05-21T22:40:00.741Z,4.00
2023-05-21T22:42:27.954Z,5.10
2023-05-21T22:44:55.192Z,4.65
2023-05-21T22:47:23.801Z,5.18
2023-05-21T22:49:53.275Z,4.93
2023-05-21T22:52:22.029Z,4.45
2023-05-21T22:54:49.836Z,5.60
2023-05-21T22:57:17.088Z,4.43
2023-05-21T22:59:44.649Z,4.68
2023-05-21T23:02:12.475Z,5.30
2023-05-21T23:04:44.407Z,4.47
2023-05-21T23:07:12.556Z,4.70
2023-05-21T23:09:39.853Z,4.75
2023-05-21T23:12:07.806Z,4.95
2023-05-21T23:14:35.111Z,4.70
2023-05-21T23:17:02.585Z,6.53
2023-05-21T23:19:30.082Z,6.05
2023-05-21T23:21:57.625Z,4.72
2023-05-21T23:24:24.793Z,4.63
2023-05-21T23:26:52.716Z,5.00
2023-05-21T23:29:19.993Z,5.13
2023-05-21T23:31:47.328Z,4.63
2023-05-21T23:34:14.637Z,5.25
2023-05-21T23:36:42.044Z,4.68
2023-05-21T23:39:09.376Z,5.18
2023-05-21T23:41:36.941Z,4.20
2023-05-21T23:44:05.011Z,4.55
2023-05-21T23:46:32.242Z,4.97
2023-05-21T23:48:59.409Z,4.72
2023-05-21T23:51:27.229Z,5.65
2023-05-21T23:53:55.090Z,5.00
2023-05-21T23:56:22.696Z,4.68
2023-05-21T23:58:50.908Z,6.68
